Prescot, United Kingdom
Current Conditions -  °F | °C
As of 2:50 PM on Tuesday 21 Oct 2014 (Local Time) from EGGP Reporting Station
Rain Showers Rain Showers  
Wind Chill: 10°   Ceiling: Unl
Heat Index: 10°   Visibility: 6mi
Dew Point:   Wind: 31mph
Humidity: 66%   Direction: 290°WNW
Pressure: 29.77"   Gusts: 44mph
Location:  53.43°N, 2.8°W
Report Text: EGGP 211350Z 29027G38KT 9000 -SHRA SCT035 10/04 Q1008
Loading
Personal Weather Stations






























Interactive Weather Map
Tropical Storm Tracking
New forecast layout! Learn more

10-Day Weather Forecast

Advertisements
Track Severe Weather on mobile